Time;durP1;ratioP1;P1;durP2;ratioP2;P2;SDS_P1;SDS_P2;PMS_P1;PMS_P2;Temp;Humidity;BMP_temperature;BMP_pressure;BME280_temperature;BME280_humidity;BME280_pressure;Samples;Min_cycle;Max_cycle;Signal;HPM_P1;HPM_P2
2022/07/13 00:01:03;;;;;;;2.08;1.98;;;;;;;15.86;75.19;99079.40;1688106;84;21100;-76
2022/07/13 00:03:30;;;;;;;2.75;1.85;;;;;;;15.87;75.16;99076.95;1703170;82;21674;-89
2022/07/13 00:05:57;;;;;;;4.95;1.72;;;;;;;15.86;75.19;99079.40;1648214;85;21023;-78
2022/07/13 00:08:24;;;;;;;2.25;1.40;;;;;;;15.85;75.20;99068.30;1670782;85;21001;-72
2022/07/13 00:10:51;;;;;;;1.77;1.30;;;;;;;15.79;75.54;99070.29;1674189;85;21112;-76
2022/07/13 00:13:19;;;;;;;3.72;1.27;;;;;;;15.78;75.51;99067.31;1702850;83;20944;-77
2022/07/13 00:15:47;;;;;;;1.40;1.30;;;;;;;15.76;75.65;99057.89;1688238;84;21031;-77
2022/07/13 00:18:14;;;;;;;1.77;1.30;;;;;;;15.75;75.67;99058.44;1701797;83;21056;-78
2022/07/13 00:20:41;;;;;;;1.55;1.45;;;;;;;15.70;75.82;99065.30;1688412;84;20973;-77
2022/07/13 00:23:09;;;;;;;1.02;1.02;;;;;;;15.68;75.95;99058.04;1701629;83;20936;-73
2022/07/13 00:25:36;;;;;;;1.37;1.27;;;;;;;15.67;76.00;99051.81;1702131;84;20990;-75
2022/07/13 00:28:03;;;;;;;1.50;1.30;;;;;;;15.61;76.13;99053.00;1703375;83;21107;-72
2022/07/13 00:30:30;;;;;;;3.45;1.30;;;;;;;15.58;76.29;99063.09;1682264;84;21034;-72
2022/07/13 00:32:57;;;;;;;1.77;1.30;;;;;;;15.60;76.30;99054.09;1695699;84;21767;-77
2022/07/13 00:35:24;;;;;;;2.00;1.20;;;;;;;15.56;76.40;99047.66;1698059;84;21173;-75
2022/07/13 00:37:51;;;;;;;1.80;1.70;;;;;;;15.52;76.56;99045.30;1700525;83;21475;-80
2022/07/13 00:40:21;;;;;;;1.70;1.27;;;;;;;15.52;76.58;99040.42;1696966;84;20941;-79
2022/07/13 00:42:51;;;;;;;2.17;1.95;;;;;;;15.53;76.44;99039.33;1697886;84;20997;-79
2022/07/13 00:45:19;;;;;;;1.25;1.15;;;;;;;15.53;76.49;99032.55;1677872;84;22159;-81
2022/07/13 00:47:50;;;;;;;1.52;1.37;;;;;;;15.52;76.58;99025.52;1700211;84;21032;-80
2022/07/13 00:50:20;;;;;;;1.92;1.62;;;;;;;15.53;76.55;99025.23;1670437;84;21517;-80
2022/07/13 00:52:47;;;;;;;1.32;1.22;;;;;;;15.55;76.45;99018.14;1670062;84;21015;-79
2022/07/13 00:55:17;;;;;;;3.17;1.20;;;;;;;15.56;76.50;99012.42;1648118;85;21041;-77
2022/07/13 00:57:43;;;;;;;3.27;1.30;;;;;;;15.50;76.69;98992.45;1699182;84;21040;-79
2022/07/13 01:00:12;;;;;;;2.12;1.30;;;;;;;15.52;76.55;99006.00;1653728;86;21121;-78
2022/07/13 01:02:45;;;;;;;1.00;1.00;;;;;;;15.51;76.55;98989.48;1699196;84;20973;-78
2022/07/13 01:05:14;;;;;;;2.27;2.10;;;;;;;15.53;76.53;98989.19;1664508;84;21019;-83
2022/07/13 01:07:40;;;;;;;3.22;1.45;;;;;;;15.54;76.42;98988.09;1698038;84;21017;-81
2022/07/13 01:10:09;;;;;;;1.75;1.45;;;;;;;15.53;76.35;98994.61;1692960;84;21081;-81
2022/07/13 01:12:39;;;;;;;1.30;1.20;;;;;;;15.53;76.31;98981.06;1673955;85;21158;-79
2022/07/13 01:15:07;;;;;;;1.87;1.32;;;;;;;15.51;76.48;98980.00;1695392;84;20993;-78
2022/07/13 01:17:36;;;;;;;1.22;1.12;;;;;;;15.50;76.45;98988.37;1696403;83;20985;-77
2022/07/13 01:20:06;;;;;;;1.60;1.50;;;;;;;15.46;76.64;98983.31;1698886;84;21572;-76
2022/07/13 01:22:36;;;;;;;1.27;1.17;;;;;;;15.42;76.81;98989.08;1690713;84;21131;-77
2022/07/13 01:25:06;;;;;;;1.85;1.30;;;;;;;15.43;76.88;98982.56;1701790;84;20972;-75
2022/07/13 01:27:36;;;;;;;3.67;1.60;;;;;;;15.41;76.78;98977.98;1703302;84;21016;-78
2022/07/13 01:30:04;;;;;;;1.62;1.00;;;;;;;15.40;76.86;98986.66;1703605;84;21581;-81
2022/07/13 01:32:51;;;;;;;1.30;1.20;;;;;;;15.41;76.83;98971.20;1660999;85;21016;-77
2022/07/13 01:35:19;;;;;;;3.52;2.10;;;;;;;15.44;76.78;98980.12;1709863;82;21075;-79
2022/07/13 01:37:47;;;;;;;1.50;1.40;;;;;;;15.39;76.93;98970.17;1670909;83;21676;-78
2022/07/13 01:40:14;;;;;;;1.55;1.40;;;;;;;15.42;76.82;98975.53;1710859;82;21630;-79
2022/07/13 01:42:47;;;;;;;2.05;1.35;;;;;;;15.41;76.81;98988.82;1710375;83;21088;-79
2022/07/13 01:45:15;;;;;;;2.90;1.35;;;;;;;15.41;76.69;98969.30;1711050;82;21052;-80
2022/07/13 01:47:47;;;;;;;3.55;1.17;;;;;;;15.44;76.63;98978.21;1697311;84;21079;-79
2022/07/13 01:50:18;;;;;;;1.30;1.20;;;;;;;15.46;76.56;98958.92;1710138;83;21796;-78
2022/07/13 01:52:47;;;;;;;5.05;1.35;;;;;;;15.45;76.38;98960.83;1711010;82;21485;-79
2022/07/13 01:55:16;;;;;;;1.67;1.47;;;;;;;15.46;76.18;98990.89;1708417;83;21782;-79
2022/07/13 01:57:46;;;;;;;1.72;1.10;;;;;;;15.48;76.16;98983.83;1699390;84;21510;-77
2022/07/13 02:00:20;;;;;;;1.25;1.07;;;;;;;15.48;76.14;98965.67;1727811;82;21056;-79
2022/07/13 02:02:48;;;;;;;2.15;1.27;;;;;;;15.47;76.33;98958.63;1727944;83;21729;-79
2022/07/13 02:05:20;;;;;;;1.85;1.30;;;;;;;15.46;76.80;98964.34;1711710;82;21019;-75
2022/07/13 02:07:47;;;;;;;1.35;1.25;;;;;;;15.48;76.79;98952.66;1710490;83;21060;-78
2022/07/13 02:10:16;;;;;;;3.17;1.50;;;;;;;15.42;77.39;98960.08;1725549;83;21035;-77
2022/07/13 02:12:45;;;;;;;1.92;1.50;;;;;;;15.36;77.74;98949.08;1710244;83;21065;-79
2022/07/13 02:15:13;;;;;;;4.17;1.50;;;;;;;15.31;77.89;98964.06;1722043;83;21091;-78
2022/07/13 02:17:40;;;;;;;5.67;1.70;;;;;;;15.30;78.05;98955.68;1717230;83;21036;-78
2022/07/13 02:20:09;;;;;;;1.20;1.10;;;;;;;15.33;78.01;98946.97;1696996;84;21548;-80
2022/07/13 02:22:44;;;;;;;1.22;1.12;;;;;;;15.37;77.96;98946.63;1710342;83;21015;-81
2022/07/13 02:25:13;;;;;;;1.32;1.22;;;;;;;15.40;77.89;98950.63;1710237;82;21011;-79
2022/07/13 02:27:42;;;;;;;2.67;1.37;;;;;;;15.36;78.15;98945.56;1697162;84;21124;-79
2022/07/13 02:30:11;;;;;;;2.65;1.40;;;;;;;15.33;78.46;98936.14;1710191;83;21553;-81
2022/07/13 02:32:41;;;;;;;1.37;1.22;;;;;;;15.31;78.70;98947.00;1694411;83;21102;-81
2022/07/13 02:35:09;;;;;;;1.20;1.20;;;;;;;15.21;79.75;98934.45;1710385;82;21081;-80
2022/07/13 02:37:37;;;;;;;2.80;1.42;;;;;;;15.14;80.39;98928.63;1710456;83;21031;-78
2022/07/13 02:40:06;;;;;;;1.27;1.20;;;;;;;15.09;80.64;98941.71;1697119;84;22010;-79
2022/07/13 02:42:34;;;;;;;1.10;1.00;;;;;;;15.04;81.46;98936.93;1710671;83;21015;-79
2022/07/13 02:45:01;;;;;;;1.40;1.30;;;;;;;15.00;82.06;98926.45;1709491;82;20956;-79
2022/07/13 02:47:27;;;;;;;3.33;1.30;;;;;;;14.90;82.56;98919.30;1697548;84;21041;-78
2022/07/13 02:49:54;;;;;;;1.40;1.30;;;;;;;14.87;83.17;98928.57;1704143;84;21570;-80
2022/07/13 02:52:21;;;;;;;2.70;1.70;;;;;;;14.83;83.54;98920.22;1710475;83;21179;-79
2022/07/13 02:54:48;;;;;;;3.98;1.98;;;;;;;14.82;83.90;98920.77;1709035;83;21018;-80
2022/07/13 02:57:15;;;;;;;1.22;1.20;;;;;;;14.78;84.59;98923.81;1708857;83;21557;-80
2022/07/13 02:59:43;;;;;;;1.75;1.60;;;;;;;14.72;84.84;98922.86;1709416;83;21203;-80
2022/07/13 03:02:10;;;;;;;4.80;1.42;;;;;;;14.66;85.10;98913.20;1695917;84;21514;-80
2022/07/13 03:04:38;;;;;;;1.40;1.30;;;;;;;14.64;85.86;98914.03;1695630;84;21577;-83
2022/07/13 03:07:05;;;;;;;1.35;1.25;;;;;;;14.55;86.83;98907.69;1696008;84;21562;-84
2022/07/13 03:09:32;;;;;;;4.47;1.30;;;;;;;14.49;87.06;98922.38;1705121;84;20966;-83
2022/07/13 03:11:59;;;;;;;1.75;1.65;;;;;;;14.50;87.34;98912.63;1705737;84;21048;-82
2022/07/13 03:14:27;;;;;;;4.17;1.20;;;;;;;14.42;88.67;98905.73;1707541;83;21593;-82
2022/07/13 03:16:54;;;;;;;1.32;1.22;;;;;;;14.33;89.54;98898.81;1728299;83;21135;-83
2022/07/13 03:19:22;;;;;;;4.60;1.60;;;;;;;14.27;89.79;98906.19;1726305;83;21004;-81
2022/07/13 03:21:49;;;;;;;3.60;1.70;;;;;;;14.30;89.86;98900.73;1696040;84;21077;-81
2022/07/13 03:24:17;;;;;;;2.55;1.62;;;;;;;14.33;89.82;98898.27;1691732;84;21017;-82
2022/07/13 03:26:44;;;;;;;1.70;1.60;;;;;;;14.32;90.42;98906.66;1688084;84;21089;-78
2022/07/13 03:29:11;;;;;;;1.32;1.15;;;;;;;14.23;90.72;98893.00;1688099;84;21101;-80
2022/07/13 03:31:40;;;;;;;4.28;1.50;;;;;;;14.22;91.47;98904.10;1703475;82;21042;-79
2022/07/13 03:34:07;;;;;;;4.75;1.25;;;;;;;14.22;91.54;98895.98;1703053;83;21077;-78
2022/07/13 03:36:35;;;;;;;1.80;1.70;;;;;;;14.23;91.62;98901.66;1703653;82;21389;-78
2022/07/13 03:39:03;;;;;;;1.60;1.50;;;;;;;14.26;91.44;98901.06;1676053;85;21073;-77
2022/07/13 03:41:30;;;;;;;3.65;2.62;;;;;;;14.22;91.98;98891.93;1674369;83;21119;-78
2022/07/13 03:43:59;;;;;;;1.95;1.85;;;;;;;14.19;92.19;98892.53;1650353;85;21111;-79
2022/07/13 03:46:27;;;;;;;1.87;1.72;;;;;;;14.16;92.74;98888.49;1673877;85;21488;-77
2022/07/13 03:48:54;;;;;;;2.12;1.75;;;;;;;14.20;92.43;98887.35;1703740;83;20996;-82
2022/07/13 03:51:21;;;;;;;2.80;1.52;;;;;;;14.16;92.64;98885.78;1689133;84;20988;-80
2022/07/13 03:53:48;;;;;;;1.45;1.30;;;;;;;14.17;92.51;98882.54;1685880;84;21408;-81
2022/07/13 03:56:14;;;;;;;3.83;1.47;;;;;;;14.21;92.41;98880.30;1667642;84;21491;-82
2022/07/13 03:58:43;;;;;;;1.47;1.37;;;;;;;14.21;92.29;98880.85;1718342;82;21035;-78
2022/07/13 04:01:14;;;;;;;1.92;1.27;;;;;;;14.25;92.27;98886.73;1702802;84;21063;-81
2022/07/13 04:03:41;;;;;;;6.35;3.55;;;;;;;14.28;92.19;98882.66;1688153;84;20953;-79
2022/07/13 04:06:07;;;;;;;1.35;1.25;;;;;;;14.33;91.94;98877.17;1703852;82;21845;-77
2022/07/13 04:08:35;;;;;;;4.20;1.50;;;;;;;14.37;91.58;98878.21;1687964;84;20970;-77
2022/07/13 04:11:02;;;;;;;1.30;1.27;;;;;;;14.41;91.45;98875.17;1686607;85;21158;-79
2022/07/13 04:13:31;;;;;;;1.80;1.30;;;;;;;14.45;91.20;98876.73;1689449;84;21496;-76
2022/07/13 04:15:58;;;;;;;1.72;1.30;;;;;;;14.41;91.23;98865.70;1703417;82;21115;-78
2022/07/13 04:18:26;;;;;;;2.92;1.32;;;;;;;14.35;91.62;98882.52;1703603;83;21081;-80
2022/07/13 04:20:54;;;;;;;2.25;1.35;;;;;;;14.30;91.87;98868.27;1702508;83;21037;-76
2022/07/13 04:23:22;;;;;;;6.92;1.45;;;;;;;14.33;91.90;98877.17;1686646;84;21057;-79
2022/07/13 04:25:49;;;;;;;1.37;1.27;;;;;;;14.29;92.05;98882.34;1688315;84;21131;-79
2022/07/13 04:28:16;;;;;;;4.08;1.20;;;;;;;14.33;92.03;98869.05;1718541;82;21068;-81
2022/07/13 04:30:43;;;;;;;1.20;1.12;;;;;;;14.35;92.03;98862.78;1707158;82;21798;-81
2022/07/13 04:33:14;;;;;;;3.22;1.22;;;;;;;14.36;92.11;98876.59;1686493;85;21053;-79
2022/07/13 04:35:41;;;;;;;1.77;1.67;;;;;;;14.38;92.17;98877.12;1687178;85;21021;-76
2022/07/13 04:38:08;;;;;;;1.75;1.65;;;;;;;14.36;92.26;98873.35;1687797;85;21579;-77
2022/07/13 04:40:38;;;;;;;1.67;1.20;;;;;;;14.37;92.44;98864.14;1675086;85;21025;-77
2022/07/13 04:43:07;;;;;;;3.40;1.32;;;;;;;14.41;92.42;98864.34;1703562;83;21149;-80
2022/07/13 04:45:36;;;;;;;2.17;1.27;;;;;;;14.42;92.30;98865.16;1689576;84;20973;-77
2022/07/13 04:48:04;;;;;;;3.47;3.17;;;;;;;14.43;92.37;98855.41;1703682;82;21123;-76
2022/07/13 04:50:32;;;;;;;4.12;1.67;;;;;;;14.45;92.43;98852.38;1674944;85;21026;-77
2022/07/13 04:53:00;;;;;;;2.17;1.57;;;;;;;14.46;92.56;98849.39;1686472;84;21515;-77
2022/07/13 04:55:30;;;;;;;1.05;1.05;;;;;;;14.51;92.54;98846.60;1674574;85;21143;-76
2022/07/13 04:57:58;;;;;;;3.52;1.25;;;;;;;14.54;92.73;98848.70;1686378;84;21596;-77
2022/07/13 05:00:26;;;;;;;2.50;1.32;;;;;;;14.59;92.58;98843.20;1685995;84;20946;-77
2022/07/13 05:02:55;;;;;;;2.85;1.25;;;;;;;14.63;92.48;98844.77;1688083;84;21089;-78
2022/07/13 05:05:24;;;;;;;2.85;1.55;;;;;;;14.67;92.00;98846.61;1703593;83;21035;-76
2022/07/13 05:07:53;;;;;;;1.55;1.45;;;;;;;14.68;92.23;98840.62;1703392;82;21120;-77
2022/07/13 05:10:22;;;;;;;2.37;1.50;;;;;;;14.63;92.83;98848.82;1687860;85;21005;-78
2022/07/13 05:12:51;;;;;;;2.02;1.10;;;;;;;14.61;92.96;98836.96;1703545;83;21501;-79
2022/07/13 05:15:19;;;;;;;1.55;1.45;;;;;;;14.64;92.89;98835.00;1703116;83;21095;-77
2022/07/13 05:17:46;;;;;;;1.25;1.07;;;;;;;14.66;92.81;98843.64;1702072;84;21005;-77
2022/07/13 05:20:13;;;;;;;1.22;1.12;;;;;;;14.67;92.89;98831.72;1686600;84;21299;-76
2022/07/13 05:22:44;;;;;;;1.17;1.07;;;;;;;14.71;92.90;98822.45;1703244;83;20940;-76
2022/07/13 05:25:12;;;;;;;1.02;1.02;;;;;;;14.71;93.04;98830.02;1682279;85;21000;-79
2022/07/13 05:27:40;;;;;;;1.32;0.93;;;;;;;14.70;93.50;98827.61;1687940;84;21112;-79
2022/07/13 05:30:08;;;;;;;2.80;1.52;;;;;;;14.68;93.27;98827.89;1689441;83;21025;-80
2022/07/13 05:32:36;;;;;;;1.90;1.20;;;;;;;14.71;93.10;98820.55;1668303;84;22553;-77
2022/07/13 05:35:04;;;;;;;3.70;1.05;;;;;;;14.71;92.89;98827.86;1680758;84;21554;-80
2022/07/13 05:37:32;;;;;;;2.27;2.08;;;;;;;14.71;92.73;98823.25;1684851;85;21027;-78
2022/07/13 05:40:00;;;;;;;1.27;1.00;;;;;;;14.72;92.47;98817.30;1650073;84;21025;-73
2022/07/13 05:42:28;;;;;;;1.95;1.32;;;;;;;14.74;92.32;98821.30;1658225;85;21128;-78
2022/07/13 05:44:57;;;;;;;2.45;1.30;;;;;;;14.79;92.16;98821.20;1686560;84;21205;-77
2022/07/13 05:47:25;;;;;;;1.05;1.05;;;;;;;14.80;92.08;98814.70;1686472;85;21026;-79
2022/07/13 05:49:52;;;;;;;1.25;1.10;;;;;;;14.86;92.10;98813.25;1674884;85;21081;-83
2022/07/13 05:52:20;;;;;;;3.50;0.93;;;;;;;14.85;92.08;98819.22;1689377;84;21060;-82
2022/07/13 05:54:47;;;;;;;0.78;0.78;;;;;;;14.82;91.65;98809.77;1689369;85;21032;-83
2022/07/13 05:57:14;;;;;;;1.17;1.12;;;;;;;14.83;92.08;98828.17;1688485;84;21574;-83
2022/07/13 05:59:43;;;;;;;1.72;1.17;;;;;;;14.81;91.77;98823.62;1687378;84;21506;-81
2022/07/13 06:02:10;;;;;;;2.45;1.10;;;;;;;14.82;91.83;98831.97;1691898;83;20965;-85
2022/07/13 06:04:38;;;;;;;3.10;1.82;;;;;;;14.84;91.92;98810.28;1661090;85;21105;-81
2022/07/13 06:07:09;;;;;;;1.20;0.95;;;;;;;14.83;92.27;98822.21;1684462;84;20965;-80
2022/07/13 06:09:37;;;;;;;1.10;1.00;;;;;;;14.83;92.49;98809.22;1685025;83;21656;-79
2022/07/13 06:12:03;;;;;;;1.20;1.17;;;;;;;14.86;92.91;98817.31;1688550;85;20984;-83
2022/07/13 06:14:32;;;;;;;1.30;1.20;;;;;;;14.90;92.90;98805.59;1660380;85;20960;-83
2022/07/13 06:17:00;;;;;;;7.10;1.35;;;;;;;14.96;92.72;98808.45;1682534;85;21041;-81
2022/07/13 06:19:27;;;;;;;3.00;0.98;;;;;;;15.00;92.48;98815.42;1686737;84;21147;-80
2022/07/13 06:21:57;;;;;;;1.55;1.20;;;;;;;15.09;92.29;98801.43;1687043;84;21685;-81
2022/07/13 06:24:24;;;;;;;1.20;1.10;;;;;;;15.17;91.64;98812.91;1687551;84;21013;-80
2022/07/13 06:26:52;;;;;;;5.45;1.35;;;;;;;15.17;91.71;98806.94;1679250;84;21115;-80
2022/07/13 06:29:20;;;;;;;1.87;0.90;;;;;;;15.18;91.73;98807.75;1698243;84;21028;-80
2022/07/13 06:31:48;;;;;;;1.30;1.20;;;;;;;15.17;92.22;98808.84;1696879;84;21141;-82
2022/07/13 06:34:15;;;;;;;1.35;1.05;;;;;;;15.13;92.49;98800.52;1687618;83;21019;-78
2022/07/13 06:36:42;;;;;;;1.30;1.20;;;;;;;15.08;93.35;98825.55;1677062;84;20957;-78
2022/07/13 06:39:08;;;;;;;1.57;1.47;;;;;;;15.04;93.99;98813.71;1696852;84;21036;-76
2022/07/13 06:41:36;;;;;;;2.42;1.95;;;;;;;15.04;94.83;98814.52;1700997;83;21561;-78
2022/07/13 06:44:06;;;;;;;2.42;1.67;;;;;;;15.06;94.67;98808.23;1695438;84;21186;-78
2022/07/13 06:46:35;;;;;;;1.47;1.25;;;;;;;15.05;95.47;98809.91;1672554;85;21248;-79
2022/07/13 06:49:01;;;;;;;1.07;0.98;;;;;;;15.04;95.88;98815.88;1696356;84;20992;-80
2022/07/13 06:51:30;;;;;;;3.15;1.35;;;;;;;15.08;95.90;98818.23;1691230;84;21099;-81
2022/07/13 06:53:57;;;;;;;1.50;1.40;;;;;;;15.10;95.89;98809.27;1697471;84;21033;-82
2022/07/13 06:56:25;;;;;;;1.92;1.72;;;;;;;15.12;95.70;98810.30;1691296;84;20998;-79
2022/07/13 06:58:52;;;;;;;2.33;1.30;;;;;;;15.12;95.78;98815.71;1695792;84;21123;-80
2022/07/13 07:01:19;;;;;;;0.95;0.95;;;;;;;15.12;95.93;98816.52;1681417;84;21569;-79
2022/07/13 07:03:46;;;;;;;1.30;1.20;;;;;;;15.18;95.52;98818.03;1658208;84;21518;-80
2022/07/13 07:06:14;;;;;;;3.20;1.20;;;;;;;15.22;95.23;98817.67;1696460;84;21037;-79
2022/07/13 07:08:41;;;;;;;0.90;0.90;;;;;;;15.27;94.57;98810.00;1698593;83;21029;-80
2022/07/13 07:11:08;;;;;;;1.87;1.40;;;;;;;15.27;94.32;98823.54;1695566;84;21184;-82
2022/07/13 07:13:35;;;;;;;1.15;1.12;;;;;;;15.28;94.25;98823.25;1682781;84;21009;-78
2022/07/13 07:16:02;;;;;;;1.95;1.20;;;;;;;15.27;94.61;98830.31;1695356;84;21012;-80
2022/07/13 07:18:29;;;;;;;1.12;1.02;;;;;;;15.18;95.37;98815.88;1695381;84;21100;-79
2022/07/13 07:21:00;;;;;;;1.25;1.17;;;;;;;15.22;95.32;98823.09;1697515;84;21075;-79
2022/07/13 07:23:26;;;;;;;1.00;1.00;;;;;;;15.30;95.30;98818.86;1685945;84;21134;-77
2022/07/13 07:25:53;;;;;;;1.82;1.42;;;;;;;15.31;95.37;98819.13;1704857;83;21039;-76
2022/07/13 07:28:23;;;;;;;1.07;1.07;;;;;;;15.31;95.75;98810.19;1697344;84;21531;-78
2022/07/13 07:30:51;;;;;;;1.10;1.10;;;;;;;15.33;95.46;98803.92;1697258;84;21085;-79
2022/07/13 07:33:22;;;;;;;1.55;1.20;;;;;;;15.34;95.51;98798.77;1697022;84;21072;-81
2022/07/13 07:35:52;;;;;;;2.17;2.00;;;;;;;15.40;95.59;98812.44;1710422;83;20948;-78
2022/07/13 07:38:21;;;;;;;1.30;1.15;;;;;;;15.37;95.48;98824.70;1710056;83;21000;-78
2022/07/13 07:40:49;;;;;;;1.50;1.40;;;;;;;15.30;96.53;98801.84;1709997;83;21088;-78
2022/07/13 07:43:19;;;;;;;2.25;0.90;;;;;;;15.23;97.77;98813.06;1683125;84;22172;-80
2022/07/13 07:45:47;;;;;;;3.20;2.90;;;;;;;15.20;98.64;98809.03;1707618;82;21065;-76
2022/07/13 07:48:14;;;;;;;2.98;0.98;;;;;;;15.20;99.47;98810.97;1691458;84;21818;-75
2022/07/13 07:50:44;;;;;;;1.52;1.42;;;;;;;15.19;99.79;98814.22;1678620;84;21014;-78
2022/07/13 07:53:12;;;;;;;1.00;1.00;;;;;;;15.20;99.98;98812.32;1710019;83;21051;-76
2022/07/13 07:55:42;;;;;;;1.82;1.00;;;;;;;15.18;100.00;98814.52;1697618;84;21005;-75
2022/07/13 07:58:11;;;;;;;1.30;1.20;;;;;;;15.17;100.00;98802.07;1710608;83;21027;-76
2022/07/13 08:00:38;;;;;;;2.75;0.95;;;;;;;15.16;100.00;98812.65;1670948;84;21091;-77
2022/07/13 08:03:09;;;;;;;2.33;2.10;;;;;;;15.18;100.00;98826.70;1709158;83;20886;-76
2022/07/13 08:05:37;;;;;;;1.02;0.95;;;;;;;15.20;100.00;98820.45;1709353;83;21012;-78
2022/07/13 08:08:05;;;;;;;1.25;1.15;;;;;;;15.23;100.00;98817.13;1697367;84;20961;-77
2022/07/13 08:10:32;;;;;;;0.98;0.98;;;;;;;15.22;100.00;98823.64;1709029;83;20984;-76
2022/07/13 08:13:05;;;;;;;3.92;1.10;;;;;;;15.19;100.00;98835.90;1696368;84;21112;-74
2022/07/13 08:15:36;;;;;;;1.17;1.00;;;;;;;15.24;100.00;98833.09;1705554;84;21000;-76
2022/07/13 08:18:03;;;;;;;1.10;1.00;;;;;;;15.27;100.00;98836.54;1677714;85;32029;-75
2022/07/13 08:20:31;;;;;;;5.37;1.17;;;;;;;15.23;100.00;98849.09;1696818;84;21041;-79
2022/07/13 08:22:58;;;;;;;1.30;1.22;;;;;;;15.23;100.00;98842.86;1705334;84;21616;-76
2022/07/13 08:25:29;;;;;;;3.42;1.50;;;;;;;15.18;100.00;98836.99;1705000;83;21175;-80
2022/07/13 08:27:57;;;;;;;0.98;0.98;;;;;;;15.15;100.00;98836.25;1705067;84;20964;-74
2022/07/13 08:30:28;;;;;;;0.98;0.98;;;;;;;15.15;100.00;98821.35;1664482;84;21505;-75
2022/07/13 08:32:55;;;;;;;2.20;1.60;;;;;;;15.18;100.00;98821.28;1709811;83;20924;-75
2022/07/13 08:40:51;;;;;;;0.90;0.90;;;;;;;15.25;100.00;98822.48;1679825;85;20961;-79
2022/07/13 08:43:19;;;;;;;2.08;1.10;;;;;;;15.28;100.00;98824.61;1696292;83;20944;-80
2022/07/13 08:45:46;;;;;;;1.47;1.37;;;;;;;15.28;100.00;98820.55;1695803;84;21050;-78
2022/07/13 08:48:18;;;;;;;1.90;1.50;;;;;;;15.29;100.00;98825.41;1695714;84;21061;-77
2022/07/13 08:50:45;;;;;;;5.40;1.98;;;;;;;15.26;100.00;98823.28;1704939;84;21140;-78
2022/07/13 08:53:12;;;;;;;1.37;1.27;;;;;;;15.24;100.00;98826.31;1708735;83;21170;-78
2022/07/13 08:55:39;;;;;;;3.17;1.30;;;;;;;15.23;100.00;98820.64;1695843;84;21511;-77
2022/07/13 08:58:07;;;;;;;3.40;3.10;;;;;;;15.19;100.00;98816.94;1670412;85;21073;-80
2022/07/13 09:00:34;;;;;;;1.67;1.47;;;;;;;15.17;100.00;98825.09;1680628;84;21085;-82
2022/07/13 09:03:01;;;;;;;2.75;1.87;;;;;;;15.16;100.00;98833.77;1675215;84;21346;-76
2022/07/13 09:05:29;;;;;;;1.32;1.22;;;;;;;15.11;100.00;98819.52;1669047;86;21276;-80
2022/07/13 09:08:07;;;;;;;1.40;1.30;;;;;;;15.11;100.00;98833.06;1681910;84;21064;-80
2022/07/13 09:10:57;;;;;;;0.88;0.88;;;;;;;15.04;100.00;98825.90;1685340;85;21059;-79
2022/07/13 09:13:39;;;;;;;0.90;0.90;;;;;;;15.06;100.00;98825.06;1699572;83;21044;-79
2022/07/13 09:16:18;;;;;;;2.22;1.00;;;;;;;15.08;100.00;98833.67;1704700;83;21188;-71
2022/07/13 09:18:54;;;;;;;0.90;0.90;;;;;;;15.11;100.00;98820.33;1692957;84;21008;-72
2022/07/13 09:21:21;;;;;;;1.92;1.37;;;;;;;15.14;100.00;98823.00;1702235;83;20933;-76
2022/07/13 09:23:51;;;;;;;1.07;0.98;;;;;;;15.17;100.00;98818.33;1710907;83;21114;-79
2022/07/13 09:26:18;;;;;;;0.90;0.90;;;;;;;15.19;100.00;98825.06;1692925;84;21020;-77
2022/07/13 09:28:47;;;;;;;1.00;1.00;;;;;;;15.27;100.00;98826.25;1672005;83;21787;-75
2022/07/13 09:31:16;;;;;;;1.05;1.05;;;;;;;15.30;100.00;98822.93;1673409;85;21544;-78
2022/07/13 09:33:45;;;;;;;1.62;1.17;;;;;;;15.29;100.00;98826.77;1703242;83;21016;-80
2022/07/13 09:36:16;;;;;;;1.62;0.88;;;;;;;15.30;100.00;98822.93;1688769;84;20946;-77
2022/07/13 09:38:45;;;;;;;1.02;0.93;;;;;;;15.35;100.00;98835.02;1705727;83;21046;-78
2022/07/13 09:41:22;;;;;;;0.95;0.95;;;;;;;15.37;100.00;98824.70;1703262;84;21136;-82
2022/07/13 09:46:59;;;;;;;1.02;1.02;;;;;;;15.33;100.00;98816.92;1686845;83;21044;-73
2022/07/13 09:49:40;;;;;;;1.02;0.78;;;;;;;15.34;100.00;98822.60;1673881;85;21052;-74
2022/07/13 09:52:08;;;;;;;1.20;1.10;;;;;;;15.34;100.00;98835.34;1682459;85;21028;-72
2022/07/13 09:54:39;;;;;;;1.82;1.30;;;;;;;15.34;100.00;98829.92;1703064;84;21115;-74
2022/07/13 09:57:13;;;;;;;1.57;1.07;;;;;;;15.38;100.00;98820.08;1673115;85;21509;-74
2022/07/13 09:59:43;;;;;;;1.40;0.93;;;;;;;15.38;100.00;98825.50;1702047;84;21552;-73
2022/07/13 10:02:11;;;;;;;1.20;1.10;;;;;;;15.41;100.00;98823.53;1701946;84;21052;-74
2022/07/13 10:04:37;;;;;;;3.45;1.10;;;;;;;15.43;100.00;98815.36;1687206;84;21030;-73
2022/07/13 10:07:05;;;;;;;0.90;0.90;;;;;;;15.45;100.00;98823.17;1718469;82;22513;-74
2022/07/13 10:09:32;;;;;;;3.12;1.27;;;;;;;15.42;100.00;98823.23;1718705;82;20996;-69
2022/07/13 10:12:10;;;;;;;0.75;0.75;;;;;;;15.45;100.00;98825.33;1712778;83;21044;-67
2022/07/13 10:14:34;;;;;;;1.17;1.07;;;;;;;15.47;100.00;98819.07;1701905;83;21077;-75
2022/07/13 10:17:03;;;;;;;0.80;0.80;;;;;;;15.49;100.00;98810.65;1705877;82;21115;-71
2022/07/13 10:19:32;;;;;;;0.90;0.78;;;;;;;15.50;100.00;98811.67;1688087;85;21267;-72
2022/07/13 10:22:12;;;;;;;1.15;1.05;;;;;;;15.49;100.00;98822.84;1673763;85;21560;-72
2022/07/13 10:24:54;;;;;;;0.90;0.90;;;;;;;15.46;100.00;98819.36;1657098;85;21028;-77
2022/07/13 10:27:30;;;;;;;6.90;1.25;;;;;;;15.51;100.00;98820.09;1708274;83;21016;-77
2022/07/13 10:30:17;;;;;;;1.32;1.22;;;;;;;15.56;100.00;98817.28;1716395;82;21040;-74
2022/07/13 10:32:46;;;;;;;1.00;0.90;;;;;;;15.61;100.00;98808.23;1694556;83;21985;-76
2022/07/13 10:35:16;;;;;;;2.80;1.05;;;;;;;15.62;100.00;98810.66;1709434;83;21039;-76
2022/07/13 10:38:02;;;;;;;1.22;1.15;;;;;;;15.59;100.00;98799.59;1710057;82;21699;-76
2022/07/13 10:40:34;;;;;;;1.22;1.00;;;;;;;15.53;100.00;98796.77;1687003;84;20965;-75
2022/07/13 10:43:08;;;;;;;1.95;0.82;;;;;;;15.51;100.00;98798.97;1688644;84;38138;-73
2022/07/13 10:48:30;;;;;;;1.17;1.07;;;;;;;15.62;100.00;98790.32;1680021;85;20192;-75
2022/07/13 10:51:00;;;;;;;0.93;0.93;;;;;;;15.62;100.00;98792.23;1679988;83;21093;-77
2022/07/13 10:53:46;;;;;;;1.00;0.80;;;;;;;15.63;100.00;98805.45;1712525;82;21107;-82
2022/07/13 10:56:20;;;;;;;4.40;1.00;;;;;;;15.67;100.00;98795.63;1707309;83;21095;-79
2022/07/13 10:58:49;;;;;;;3.47;0.90;;;;;;;15.75;100.00;98805.48;1712666;83;21127;-76
2022/07/13 11:01:39;;;;;;;0.82;0.82;;;;;;;15.78;100.00;98809.74;1691573;84;21036;-80
2022/07/13 11:04:07;;;;;;;1.00;1.00;;;;;;;15.83;100.00;98813.70;1705070;84;21083;-75
2022/07/13 11:06:36;;;;;;;2.05;0.82;;;;;;;15.89;100.00;98805.70;1702107;83;21455;-84
2022/07/13 11:09:19;;;;;;;6.80;1.20;;;;;;;15.84;100.00;98799.04;1705514;83;21057;-73
2022/07/13 11:11:53;;;;;;;1.55;1.20;;;;;;;15.86;100.00;98803.61;1706122;84;21306;-75
2022/07/13 11:14:45;;;;;;;2.05;0.80;;;;;;;15.88;100.00;98792.44;1706924;84;21029;-77
2022/07/13 11:17:23;;;;;;;0.80;0.80;;;;;;;15.89;100.00;98806.25;1668353;83;21595;-71
2022/07/13 11:20:11;;;;;;;0.90;0.90;;;;;;;15.91;100.00;98796.72;1663602;86;21005;-76
2022/07/13 11:25:50;;;;;;;1.00;1.00;;;;;;;15.96;100.00;98789.83;1621079;87;21175;-75
2022/07/13 11:28:39;;;;;;;0.98;0.88;;;;;;;16.02;100.00;98805.40;1575292;91;21004;-75
2022/07/13 11:31:06;;;;;;;0.75;0.75;;;;;;;16.05;99.93;98800.73;1629001;84;21041;-75
2022/07/13 11:33:33;;;;;;;1.25;0.90;;;;;;;16.06;99.75;98804.51;1669223;85;21040;-72
2022/07/13 11:36:01;;;;;;;0.88;0.88;;;;;;;16.05;99.83;98798.83;1697947;84;21048;-71
2022/07/13 11:38:35;;;;;;;1.10;1.00;;;;;;;16.09;99.61;98799.01;1698859;84;21365;-69
2022/07/13 11:41:05;;;;;;;1.00;1.00;;;;;;;16.12;99.55;98800.54;1681768;84;21068;-70
2022/07/13 11:43:32;;;;;;;0.70;0.70;;;;;;;16.16;99.17;98800.75;1683749;84;21020;-73
2022/07/13 11:45:58;;;;;;;1.20;1.10;;;;;;;16.16;98.96;98804.02;1684666;84;21099;-73
2022/07/13 11:48:30;;;;;;;1.45;0.90;;;;;;;16.16;98.70;98809.44;1680697;84;21033;-77
2022/07/13 11:50:59;;;;;;;1.02;1.02;;;;;;;16.11;98.97;98803.59;1684250;85;21121;-89
2022/07/13 11:53:31;;;;;;;3.65;0.95;;;;;;;16.08;99.37;98807.70;1683639;84;21026;-73
2022/07/13 11:56:04;;;;;;;0.88;0.88;;;;;;;16.10;99.60;98806.05;1683607;84;21053;-73